sensor_id;sensor_type;location;lat;lon;timestamp;P1;durP1;ratioP1;P2;durP2;ratioP2
43086;SDS011;28708;52.224;6.924;2023-02-28T00:00:23;12.27;;;5.00;;
43086;SDS011;28708;52.224;6.924;2023-02-28T00:02:49;10.30;;;5.27;;
43086;SDS011;28708;52.224;6.924;2023-02-28T00:05:16;9.13;;;4.43;;
43086;SDS011;28708;52.224;6.924;2023-02-28T00:07:43;11.53;;;4.73;;
43086;SDS011;28708;52.224;6.924;2023-02-28T00:10:10;8.83;;;4.97;;
43086;SDS011;28708;52.224;6.924;2023-02-28T00:12:39;11.37;;;5.20;;
43086;SDS011;28708;52.224;6.924;2023-02-28T00:15:05;9.47;;;5.10;;
43086;SDS011;28708;52.224;6.924;2023-02-28T00:17:33;11.43;;;4.93;;
43086;SDS011;28708;52.224;6.924;2023-02-28T00:19:58;10.73;;;5.33;;
43086;SDS011;28708;52.224;6.924;2023-02-28T00:22:41;10.73;;;5.43;;
43086;SDS011;28708;52.224;6.924;2023-02-28T00:25:08;14.33;;;5.60;;
43086;SDS011;28708;52.224;6.924;2023-02-28T00:27:35;12.50;;;5.50;;
43086;SDS011;28708;52.224;6.924;2023-02-28T00:30:03;10.90;;;5.40;;
43086;SDS011;28708;52.224;6.924;2023-02-28T00:32:30;10.83;;;5.07;;
43086;SDS011;28708;52.224;6.924;2023-02-28T00:34:56;11.47;;;5.40;;
43086;SDS011;28708;52.224;6.924;2023-02-28T00:37:21;10.90;;;4.87;;
43086;SDS011;28708;52.224;6.924;2023-02-28T00:39:47;11.10;;;5.27;;
43086;SDS011;28708;52.224;6.924;2023-02-28T00:42:14;11.57;;;5.40;;
43086;SDS011;28708;52.224;6.924;2023-02-28T00:44:40;11.33;;;5.43;;
43086;SDS011;28708;52.224;6.924;2023-02-28T00:47:06;9.80;;;5.80;;
43086;SDS011;28708;52.224;6.924;2023-02-28T00:49:31;10.27;;;5.97;;
43086;SDS011;28708;52.224;6.924;2023-02-28T00:51:57;12.13;;;5.80;;
43086;SDS011;28708;52.224;6.924;2023-02-28T00:54:25;10.70;;;5.47;;
43086;SDS011;28708;52.224;6.924;2023-02-28T00:56:50;10.40;;;5.50;;
43086;SDS011;28708;52.224;6.924;2023-02-28T00:59:16;11.00;;;5.50;;
43086;SDS011;28708;52.224;6.924;2023-02-28T01:01:44;7.97;;;5.53;;
43086;SDS011;28708;52.224;6.924;2023-02-28T01:04:10;11.63;;;5.90;;
43086;SDS011;28708;52.224;6.924;2023-02-28T01:06:36;12.17;;;5.63;;
43086;SDS011;28708;52.224;6.924;2023-02-28T01:09:02;11.23;;;5.67;;
43086;SDS011;28708;52.224;6.924;2023-02-28T01:11:29;10.00;;;5.43;;
43086;SDS011;28708;52.224;6.924;2023-02-28T01:13:55;10.23;;;5.23;;
43086;SDS011;28708;52.224;6.924;2023-02-28T01:16:21;11.00;;;5.70;;
43086;SDS011;28708;52.224;6.924;2023-02-28T01:18:47;11.83;;;5.87;;
43086;SDS011;28708;52.224;6.924;2023-02-28T01:21:14;11.20;;;6.00;;
43086;SDS011;28708;52.224;6.924;2023-02-28T01:23:43;11.70;;;5.37;;
43086;SDS011;28708;52.224;6.924;2023-02-28T01:26:10;12.73;;;6.10;;
43086;SDS011;28708;52.224;6.924;2023-02-28T01:28:38;9.90;;;5.47;;
43086;SDS011;28708;52.224;6.924;2023-02-28T01:31:04;11.80;;;6.03;;
43086;SDS011;28708;52.224;6.924;2023-02-28T01:33:30;11.33;;;6.10;;
43086;SDS011;28708;52.224;6.924;2023-02-28T01:35:58;12.10;;;5.87;;
43086;SDS011;28708;52.224;6.924;2023-02-28T01:38:24;12.00;;;6.10;;
43086;SDS011;28708;52.224;6.924;2023-02-28T01:40:53;11.47;;;6.00;;
43086;SDS011;28708;52.224;6.924;2023-02-28T01:43:20;10.97;;;6.27;;
43086;SDS011;28708;52.224;6.924;2023-02-28T01:45:46;11.27;;;6.47;;
43086;SDS011;28708;52.224;6.924;2023-02-28T01:48:12;13.37;;;6.97;;
43086;SDS011;28708;52.224;6.924;2023-02-28T01:50:39;13.93;;;6.47;;
43086;SDS011;28708;52.224;6.924;2023-02-28T01:53:10;12.50;;;6.70;;
43086;SDS011;28708;52.224;6.924;2023-02-28T01:55:40;13.50;;;6.87;;
43086;SDS011;28708;52.224;6.924;2023-02-28T01:58:12;13.40;;;6.37;;
43086;SDS011;28708;52.224;6.924;2023-02-28T02:00:38;10.90;;;6.60;;
43086;SDS011;28708;52.224;6.924;2023-02-28T02:03:06;11.80;;;6.50;;
43086;SDS011;28708;52.224;6.924;2023-02-28T02:05:34;13.07;;;6.40;;
43086;SDS011;28708;52.224;6.924;2023-02-28T02:08:06;9.23;;;5.80;;
43086;SDS011;28708;52.224;6.924;2023-02-28T02:10:38;13.77;;;6.93;;
43086;SDS011;28708;52.224;6.924;2023-02-28T02:13:16;13.00;;;6.47;;
43086;SDS011;28708;52.224;6.924;2023-02-28T02:22:44;12.53;;;7.07;;
43086;SDS011;28708;52.224;6.924;2023-02-28T02:36:27;14.40;;;7.40;;
43086;SDS011;28708;52.224;6.924;2023-02-28T02:41:51;11.37;;;6.63;;
43086;SDS011;28708;52.224;6.924;2023-02-28T02:46:44;9.77;;;6.13;;
43086;SDS011;28708;52.224;6.924;2023-02-28T02:49:16;15.07;;;6.23;;
43086;SDS011;28708;52.224;6.924;2023-02-28T02:51:47;14.83;;;6.70;;
43086;SDS011;28708;52.224;6.924;2023-02-28T02:54:17;15.47;;;7.13;;
43086;SDS011;28708;52.224;6.924;2023-02-28T02:56:48;10.93;;;6.93;;
43086;SDS011;28708;52.224;6.924;2023-02-28T02:59:17;13.70;;;6.67;;
43086;SDS011;28708;52.224;6.924;2023-02-28T03:01:50;15.03;;;6.67;;
43086;SDS011;28708;52.224;6.924;2023-02-28T03:04:23;12.40;;;6.63;;
43086;SDS011;28708;52.224;6.924;2023-02-28T03:09:21;12.83;;;6.50;;
43086;SDS011;28708;52.224;6.924;2023-02-28T03:11:47;12.03;;;6.37;;
43086;SDS011;28708;52.224;6.924;2023-02-28T03:25:42;14.17;;;6.73;;
43086;SDS011;28708;52.224;6.924;2023-02-28T03:31:10;13.30;;;6.60;;
43086;SDS011;28708;52.224;6.924;2023-02-28T03:33:51;12.27;;;6.27;;
43086;SDS011;28708;52.224;6.924;2023-02-28T03:36:35;10.57;;;6.13;;
43086;SDS011;28708;52.224;6.924;2023-02-28T03:39:09;11.13;;;6.20;;
43086;SDS011;28708;52.224;6.924;2023-02-28T03:41:43;9.20;;;5.90;;
43086;SDS011;28708;52.224;6.924;2023-02-28T03:44:19;10.03;;;6.10;;
43086;SDS011;28708;52.224;6.924;2023-02-28T03:46:55;10.97;;;6.40;;
43086;SDS011;28708;52.224;6.924;2023-02-28T03:49:30;11.03;;;6.23;;
43086;SDS011;28708;52.224;6.924;2023-02-28T03:52:00;12.20;;;6.07;;
43086;SDS011;28708;52.224;6.924;2023-02-28T03:54:35;9.90;;;6.27;;
43086;SDS011;28708;52.224;6.924;2023-02-28T03:57:24;13.00;;;6.37;;
43086;SDS011;28708;52.224;6.924;2023-02-28T03:59:59;16.70;;;6.80;;
43086;SDS011;28708;52.224;6.924;2023-02-28T04:02:37;12.57;;;6.63;;
43086;SDS011;28708;52.224;6.924;2023-02-28T04:05:04;16.43;;;6.30;;
43086;SDS011;28708;52.224;6.924;2023-02-28T04:07:31;12.60;;;6.70;;
43086;SDS011;28708;52.224;6.924;2023-02-28T04:09:57;12.23;;;6.10;;
43086;SDS011;28708;52.224;6.924;2023-02-28T04:12:23;11.23;;;6.00;;
43086;SDS011;28708;52.224;6.924;2023-02-28T04:14:49;16.43;;;5.97;;
43086;SDS011;28708;52.224;6.924;2023-02-28T04:17:15;11.10;;;6.23;;
43086;SDS011;28708;52.224;6.924;2023-02-28T04:19:41;16.43;;;6.63;;
43086;SDS011;28708;52.224;6.924;2023-02-28T04:22:08;9.80;;;5.83;;
43086;SDS011;28708;52.224;6.924;2023-02-28T04:24:34;9.70;;;6.17;;
43086;SDS011;28708;52.224;6.924;2023-02-28T04:26:59;8.20;;;5.33;;
43086;SDS011;28708;52.224;6.924;2023-02-28T04:29:30;11.20;;;5.30;;
43086;SDS011;28708;52.224;6.924;2023-02-28T04:31:57;12.20;;;5.67;;
43086;SDS011;28708;52.224;6.924;2023-02-28T04:34:24;9.37;;;5.23;;
43086;SDS011;28708;52.224;6.924;2023-02-28T04:36:50;10.00;;;5.93;;
43086;SDS011;28708;52.224;6.924;2023-02-28T04:39:19;11.30;;;6.13;;
43086;SDS011;28708;52.224;6.924;2023-02-28T04:41:45;11.30;;;6.27;;
43086;SDS011;28708;52.224;6.924;2023-02-28T04:44:11;9.57;;;5.60;;
43086;SDS011;28708;52.224;6.924;2023-02-28T04:46:37;9.83;;;5.73;;
43086;SDS011;28708;52.224;6.924;2023-02-28T04:49:03;10.20;;;5.67;;
43086;SDS011;28708;52.224;6.924;2023-02-28T04:51:28;10.30;;;5.13;;
43086;SDS011;28708;52.224;6.924;2023-02-28T04:53:54;13.53;;;6.43;;
43086;SDS011;28708;52.224;6.924;2023-02-28T04:56:20;9.13;;;5.57;;
43086;SDS011;28708;52.224;6.924;2023-02-28T04:58:47;10.13;;;6.03;;
43086;SDS011;28708;52.224;6.924;2023-02-28T05:01:17;12.13;;;6.10;;
43086;SDS011;28708;52.224;6.924;2023-02-28T05:03:45;11.17;;;5.77;;
43086;SDS011;28708;52.224;6.924;2023-02-28T05:06:12;13.90;;;6.23;;
43086;SDS011;28708;52.224;6.924;2023-02-28T05:08:38;14.60;;;6.20;;
43086;SDS011;28708;52.224;6.924;2023-02-28T05:11:06;14.90;;;6.13;;
43086;SDS011;28708;52.224;6.924;2023-02-28T05:13:42;14.50;;;6.53;;
43086;SDS011;28708;52.224;6.924;2023-02-28T05:16:08;12.43;;;6.73;;
43086;SDS011;28708;52.224;6.924;2023-02-28T05:18:34;11.73;;;6.70;;
43086;SDS011;28708;52.224;6.924;2023-02-28T05:20:59;12.20;;;6.10;;
43086;SDS011;28708;52.224;6.924;2023-02-28T05:23:28;11.87;;;7.00;;
43086;SDS011;28708;52.224;6.924;2023-02-28T05:25:54;10.50;;;6.93;;
43086;SDS011;28708;52.224;6.924;2023-02-28T05:28:20;13.73;;;7.30;;
43086;SDS011;28708;52.224;6.924;2023-02-28T05:30:46;15.13;;;6.83;;
43086;SDS011;28708;52.224;6.924;2023-02-28T05:33:12;13.67;;;7.37;;
43086;SDS011;28708;52.224;6.924;2023-02-28T05:35:38;13.10;;;7.43;;
43086;SDS011;28708;52.224;6.924;2023-02-28T05:38:05;13.87;;;7.77;;
43086;SDS011;28708;52.224;6.924;2023-02-28T05:40:31;13.77;;;7.90;;
43086;SDS011;28708;52.224;6.924;2023-02-28T05:42:57;14.83;;;7.40;;
43086;SDS011;28708;52.224;6.924;2023-02-28T05:45:23;18.00;;;7.77;;
43086;SDS011;28708;52.224;6.924;2023-02-28T05:47:48;15.23;;;8.33;;
43086;SDS011;28708;52.224;6.924;2023-02-28T05:50:14;16.87;;;8.80;;
43086;SDS011;28708;52.224;6.924;2023-02-28T05:52:40;14.33;;;7.90;;
43086;SDS011;28708;52.224;6.924;2023-02-28T05:55:05;14.80;;;8.50;;
43086;SDS011;28708;52.224;6.924;2023-02-28T05:57:31;14.63;;;8.30;;
43086;SDS011;28708;52.224;6.924;2023-02-28T05:59:57;14.83;;;8.67;;
43086;SDS011;28708;52.224;6.924;2023-02-28T06:02:23;14.33;;;8.73;;
43086;SDS011;28708;52.224;6.924;2023-02-28T06:04:48;12.80;;;8.13;;
43086;SDS011;28708;52.224;6.924;2023-02-28T06:07:14;12.80;;;8.30;;
43086;SDS011;28708;52.224;6.924;2023-02-28T06:09:40;12.67;;;8.13;;
43086;SDS011;28708;52.224;6.924;2023-02-28T06:12:06;14.60;;;8.63;;
43086;SDS011;28708;52.224;6.924;2023-02-28T06:14:34;13.63;;;8.07;;
43086;SDS011;28708;52.224;6.924;2023-02-28T06:17:00;14.63;;;8.50;;
43086;SDS011;28708;52.224;6.924;2023-02-28T06:19:26;15.10;;;8.67;;
43086;SDS011;28708;52.224;6.924;2023-02-28T06:21:52;15.43;;;8.27;;
43086;SDS011;28708;52.224;6.924;2023-02-28T06:24:19;15.57;;;9.27;;
43086;SDS011;28708;52.224;6.924;2023-02-28T06:26:46;14.83;;;8.63;;
43086;SDS011;28708;52.224;6.924;2023-02-28T06:29:12;16.13;;;8.83;;
43086;SDS011;28708;52.224;6.924;2023-02-28T06:31:42;18.30;;;9.18;;
43086;SDS011;28708;52.224;6.924;2023-02-28T06:34:09;13.97;;;8.47;;
43086;SDS011;28708;52.224;6.924;2023-02-28T06:36:37;12.80;;;8.33;;
43086;SDS011;28708;52.224;6.924;2023-02-28T06:39:03;16.73;;;8.53;;
43086;SDS011;28708;52.224;6.924;2023-02-28T06:41:29;13.47;;;8.60;;
43086;SDS011;28708;52.224;6.924;2023-02-28T06:43:55;14.97;;;9.20;;
43086;SDS011;28708;52.224;6.924;2023-02-28T06:46:22;13.73;;;8.53;;
43086;SDS011;28708;52.224;6.924;2023-02-28T06:48:48;15.07;;;8.53;;
43086;SDS011;28708;52.224;6.924;2023-02-28T06:51:16;14.70;;;8.43;;
43086;SDS011;28708;52.224;6.924;2023-02-28T06:53:45;13.80;;;8.33;;
43086;SDS011;28708;52.224;6.924;2023-02-28T06:56:12;14.33;;;8.50;;
43086;SDS011;28708;52.224;6.924;2023-02-28T06:58:39;15.13;;;8.17;;
43086;SDS011;28708;52.224;6.924;2023-02-28T07:01:06;17.13;;;8.67;;
43086;SDS011;28708;52.224;6.924;2023-02-28T07:03:32;18.07;;;9.43;;
43086;SDS011;28708;52.224;6.924;2023-02-28T07:06:00;13.70;;;8.50;;
43086;SDS011;28708;52.224;6.924;2023-02-28T07:08:26;18.83;;;8.20;;
43086;SDS011;28708;52.224;6.924;2023-02-28T07:10:52;18.20;;;8.50;;
43086;SDS011;28708;52.224;6.924;2023-02-28T07:13:19;19.27;;;8.63;;
43086;SDS011;28708;52.224;6.924;2023-02-28T07:15:59;16.93;;;8.50;;
43086;SDS011;28708;52.224;6.924;2023-02-28T07:18:27;15.83;;;8.40;;
43086;SDS011;28708;52.224;6.924;2023-02-28T07:20:53;18.27;;;9.43;;
43086;SDS011;28708;52.224;6.924;2023-02-28T07:23:19;18.67;;;9.23;;
43086;SDS011;28708;52.224;6.924;2023-02-28T07:25:45;16.87;;;8.20;;
43086;SDS011;28708;52.224;6.924;2023-02-28T07:28:11;12.97;;;7.83;;
43086;SDS011;28708;52.224;6.924;2023-02-28T07:30:37;15.70;;;8.20;;
43086;SDS011;28708;52.224;6.924;2023-02-28T07:33:03;13.03;;;6.23;;
43086;SDS011;28708;52.224;6.924;2023-02-28T07:35:29;11.83;;;7.00;;
43086;SDS011;28708;52.224;6.924;2023-02-28T07:37:56;13.10;;;6.20;;
43086;SDS011;28708;52.224;6.924;2023-02-28T07:40:23;8.97;;;5.33;;
43086;SDS011;28708;52.224;6.924;2023-02-28T07:42:49;10.47;;;5.63;;
43086;SDS011;28708;52.224;6.924;2023-02-28T07:45:16;13.70;;;5.43;;
43086;SDS011;28708;52.224;6.924;2023-02-28T07:47:42;8.40;;;5.27;;
43086;SDS011;28708;52.224;6.924;2023-02-28T07:50:09;8.80;;;5.10;;
43086;SDS011;28708;52.224;6.924;2023-02-28T07:52:36;8.30;;;4.70;;
43086;SDS011;28708;52.224;6.924;2023-02-28T07:55:03;7.67;;;4.07;;
43086;SDS011;28708;52.224;6.924;2023-02-28T07:57:30;9.37;;;4.77;;
43086;SDS011;28708;52.224;6.924;2023-02-28T07:59:55;8.23;;;4.43;;
43086;SDS011;28708;52.224;6.924;2023-02-28T08:02:21;7.80;;;4.10;;
43086;SDS011;28708;52.224;6.924;2023-02-28T08:04:47;7.60;;;3.73;;
43086;SDS011;28708;52.224;6.924;2023-02-28T08:07:13;9.10;;;3.60;;
43086;SDS011;28708;52.224;6.924;2023-02-28T08:09:40;8.70;;;3.30;;
43086;SDS011;28708;52.224;6.924;2023-02-28T08:12:07;8.53;;;3.50;;
43086;SDS011;28708;52.224;6.924;2023-02-28T08:14:34;8.37;;;3.33;;
43086;SDS011;28708;52.224;6.924;2023-02-28T08:17:00;5.70;;;3.77;;
43086;SDS011;28708;52.224;6.924;2023-02-28T08:19:26;7.70;;;3.80;;
43086;SDS011;28708;52.224;6.924;2023-02-28T08:21:52;9.33;;;3.30;;
43086;SDS011;28708;52.224;6.924;2023-02-28T08:24:17;5.40;;;3.07;;
43086;SDS011;28708;52.224;6.924;2023-02-28T08:26:43;9.40;;;3.37;;
43086;SDS011;28708;52.224;6.924;2023-02-28T08:29:09;6.57;;;3.40;;
43086;SDS011;28708;52.224;6.924;2023-02-28T08:31:35;10.73;;;3.93;;
43086;SDS011;28708;52.224;6.924;2023-02-28T08:34:05;5.17;;;2.60;;
43086;SDS011;28708;52.224;6.924;2023-02-28T08:36:31;8.90;;;3.23;;
43086;SDS011;28708;52.224;6.924;2023-02-28T08:38:57;7.27;;;3.43;;
43086;SDS011;28708;52.224;6.924;2023-02-28T08:41:23;5.47;;;3.20;;
43086;SDS011;28708;52.224;6.924;2023-02-28T08:43:48;4.77;;;2.67;;
43086;SDS011;28708;52.224;6.924;2023-02-28T08:46:14;5.83;;;2.83;;
43086;SDS011;28708;52.224;6.924;2023-02-28T08:48:40;6.10;;;2.73;;
43086;SDS011;28708;52.224;6.924;2023-02-28T08:51:08;6.30;;;2.80;;
43086;SDS011;28708;52.224;6.924;2023-02-28T08:53:46;5.32;;;2.83;;
43086;SDS011;28708;52.224;6.924;2023-02-28T08:56:15;5.67;;;2.67;;
43086;SDS011;28708;52.224;6.924;2023-02-28T08:58:45;6.05;;;2.42;;
43086;SDS011;28708;52.224;6.924;2023-02-28T09:03:40;4.37;;;1.90;;
43086;SDS011;28708;52.224;6.924;2023-02-28T09:06:06;8.30;;;2.47;;
43086;SDS011;28708;52.224;6.924;2023-02-28T09:08:33;5.13;;;1.97;;
43086;SDS011;28708;52.224;6.924;2023-02-28T09:10:59;5.03;;;2.40;;
43086;SDS011;28708;52.224;6.924;2023-02-28T09:13:27;5.87;;;2.50;;
43086;SDS011;28708;52.224;6.924;2023-02-28T09:15:53;5.83;;;3.03;;
43086;SDS011;28708;52.224;6.924;2023-02-28T09:18:19;5.10;;;2.33;;
43086;SDS011;28708;52.224;6.924;2023-02-28T09:20:45;3.90;;;1.83;;
43086;SDS011;28708;52.224;6.924;2023-02-28T09:23:11;4.00;;;1.93;;
43086;SDS011;28708;52.224;6.924;2023-02-28T09:25:37;11.30;;;9.50;;
43086;SDS011;28708;52.224;6.924;2023-02-28T09:28:10;5.23;;;2.37;;
43086;SDS011;28708;52.224;6.924;2023-02-28T09:30:36;17.37;;;3.13;;
43086;SDS011;28708;52.224;6.924;2023-02-28T09:33:02;5.37;;;2.50;;
43086;SDS011;28708;52.224;6.924;2023-02-28T09:35:28;3.73;;;1.87;;
43086;SDS011;28708;52.224;6.924;2023-02-28T09:37:55;3.03;;;1.40;;
43086;SDS011;28708;52.224;6.924;2023-02-28T09:40:23;4.97;;;1.70;;
43086;SDS011;28708;52.224;6.924;2023-02-28T09:42:51;6.50;;;2.03;;
43086;SDS011;28708;52.224;6.924;2023-02-28T09:45:30;3.00;;;1.33;;
43086;SDS011;28708;52.224;6.924;2023-02-28T09:48:01;5.03;;;2.40;;
43086;SDS011;28708;52.224;6.924;2023-02-28T09:50:38;29.27;;;12.70;;
43086;SDS011;28708;52.224;6.924;2023-02-28T09:53:28;7.30;;;2.80;;
43086;SDS011;28708;52.224;6.924;2023-02-28T09:56:07;5.67;;;2.97;;
43086;SDS011;28708;52.224;6.924;2023-02-28T09:58:42;10.33;;;3.60;;
43086;SDS011;28708;52.224;6.924;2023-02-28T10:01:20;8.43;;;4.20;;
43086;SDS011;28708;52.224;6.924;2023-02-28T10:03:57;89.23;;;34.93;;
43086;SDS011;28708;52.224;6.924;2023-02-28T10:06:36;73.57;;;28.50;;
43086;SDS011;28708;52.224;6.924;2023-02-28T10:09:11;4.37;;;1.37;;
43086;SDS011;28708;52.224;6.924;2023-02-28T10:11:43;8.30;;;3.70;;
43086;SDS011;28708;52.224;6.924;2023-02-28T10:14:15;5.33;;;2.60;;
43086;SDS011;28708;52.224;6.924;2023-02-28T10:19:30;2.67;;;1.30;;
43086;SDS011;28708;52.224;6.924;2023-02-28T10:22:01;4.03;;;1.47;;
43086;SDS011;28708;52.224;6.924;2023-02-28T10:24:40;2.70;;;1.10;;
43086;SDS011;28708;52.224;6.924;2023-02-28T10:29:43;3.90;;;1.80;;
43086;SDS011;28708;52.224;6.924;2023-02-28T10:32:10;3.20;;;1.87;;
43086;SDS011;28708;52.224;6.924;2023-02-28T10:34:40;3.13;;;1.60;;
43086;SDS011;28708;52.224;6.924;2023-02-28T10:37:05;2.23;;;1.10;;
43086;SDS011;28708;52.224;6.924;2023-02-28T10:42:24;2.83;;;1.07;;
43086;SDS011;28708;52.224;6.924;2023-02-28T10:47:42;2.73;;;1.10;;
43086;SDS011;28708;52.224;6.924;2023-02-28T10:55:56;4.70;;;1.97;;
43086;SDS011;28708;52.224;6.924;2023-02-28T11:01:15;3.83;;;1.20;;
43086;SDS011;28708;52.224;6.924;2023-02-28T11:03:42;2.53;;;1.00;;
43086;SDS011;28708;52.224;6.924;2023-02-28T11:06:12;3.83;;;1.20;;
43086;SDS011;28708;52.224;6.924;2023-02-28T11:08:58;3.10;;;1.30;;
43086;SDS011;28708;52.224;6.924;2023-02-28T11:11:26;2.80;;;1.30;;
43086;SDS011;28708;52.224;6.924;2023-02-28T11:13:55;2.07;;;1.17;;
43086;SDS011;28708;52.224;6.924;2023-02-28T11:16:30;2.43;;;1.23;;
43086;SDS011;28708;52.224;6.924;2023-02-28T11:18:58;4.27;;;1.60;;
43086;SDS011;28708;52.224;6.924;2023-02-28T11:21:31;2.03;;;1.20;;
43086;SDS011;28708;52.224;6.924;2023-02-28T11:24:01;2.37;;;1.20;;
43086;SDS011;28708;52.224;6.924;2023-02-28T11:26:40;2.90;;;1.40;;
43086;SDS011;28708;52.224;6.924;2023-02-28T11:29:21;2.97;;;1.60;;
43086;SDS011;28708;52.224;6.924;2023-02-28T11:34:38;3.73;;;1.30;;
43086;SDS011;28708;52.224;6.924;2023-02-28T11:37:09;1.90;;;1.17;;
43086;SDS011;28708;52.224;6.924;2023-02-28T11:39:37;3.07;;;1.00;;
43086;SDS011;28708;52.224;6.924;2023-02-28T11:44:42;4.17;;;1.73;;
43086;SDS011;28708;52.224;6.924;2023-02-28T11:52:56;2.05;;;1.10;;
43086;SDS011;28708;52.224;6.924;2023-02-28T12:00:54;1.80;;;1.17;;
43086;SDS011;28708;52.224;6.924;2023-02-28T12:09:02;3.50;;;1.10;;
43086;SDS011;28708;52.224;6.924;2023-02-28T12:11:58;3.20;;;1.07;;
43086;SDS011;28708;52.224;6.924;2023-02-28T12:17:47;3.50;;;1.43;;
43086;SDS011;28708;52.224;6.924;2023-02-28T12:28:34;2.67;;;1.33;;
43086;SDS011;28708;52.224;6.924;2023-02-28T12:31:08;4.43;;;1.70;;
43086;SDS011;28708;52.224;6.924;2023-02-28T12:33:40;2.90;;;1.30;;
43086;SDS011;28708;52.224;6.924;2023-02-28T12:36:10;4.73;;;1.17;;
43086;SDS011;28708;52.224;6.924;2023-02-28T12:38:41;3.33;;;1.40;;
43086;SDS011;28708;52.224;6.924;2023-02-28T12:43:40;3.27;;;1.50;;
43086;SDS011;28708;52.224;6.924;2023-02-28T12:46:24;2.93;;;1.10;;
43086;SDS011;28708;52.224;6.924;2023-02-28T12:48:55;4.03;;;1.87;;
43086;SDS011;28708;52.224;6.924;2023-02-28T12:51:22;2.93;;;1.70;;
43086;SDS011;28708;52.224;6.924;2023-02-28T12:59:23;2.27;;;1.53;;
43086;SDS011;28708;52.224;6.924;2023-02-28T13:10:21;3.03;;;1.70;;
43086;SDS011;28708;52.224;6.924;2023-02-28T13:12:51;3.47;;;1.60;;
43086;SDS011;28708;52.224;6.924;2023-02-28T13:15:25;5.07;;;1.80;;
43086;SDS011;28708;52.224;6.924;2023-02-28T13:17:54;3.30;;;1.77;;
43086;SDS011;28708;52.224;6.924;2023-02-28T13:20:26;6.07;;;2.10;;
43086;SDS011;28708;52.224;6.924;2023-02-28T13:22:59;5.97;;;1.97;;
43086;SDS011;28708;52.224;6.924;2023-02-28T13:27:58;4.43;;;1.70;;
43086;SDS011;28708;52.224;6.924;2023-02-28T13:33:30;3.67;;;2.10;;
43086;SDS011;28708;52.224;6.924;2023-02-28T13:38:47;4.80;;;1.97;;
43086;SDS011;28708;52.224;6.924;2023-02-28T13:54:30;4.40;;;1.60;;
43086;SDS011;28708;52.224;6.924;2023-02-28T13:59:54;3.03;;;1.47;;
43086;SDS011;28708;52.224;6.924;2023-02-28T14:05:17;5.43;;;1.67;;
43086;SDS011;28708;52.224;6.924;2023-02-28T14:07:48;3.33;;;1.20;;
43086;SDS011;28708;52.224;6.924;2023-02-28T14:10:24;17.60;;;2.63;;
43086;SDS011;28708;52.224;6.924;2023-02-28T14:13:11;23.40;;;2.43;;
43086;SDS011;28708;52.224;6.924;2023-02-28T14:15:59;4.03;;;1.20;;
43086;SDS011;28708;52.224;6.924;2023-02-28T14:32:01;3.83;;;1.53;;
43086;SDS011;28708;52.224;6.924;2023-02-28T14:34:46;3.07;;;1.57;;
43086;SDS011;28708;52.224;6.924;2023-02-28T14:37:27;3.30;;;1.30;;
43086;SDS011;28708;52.224;6.924;2023-02-28T14:39:57;2.30;;;1.20;;
43086;SDS011;28708;52.224;6.924;2023-02-28T14:42:34;2.57;;;1.30;;
43086;SDS011;28708;52.224;6.924;2023-02-28T14:45:03;3.07;;;1.40;;
43086;SDS011;28708;52.224;6.924;2023-02-28T14:47:33;2.27;;;1.40;;
43086;SDS011;28708;52.224;6.924;2023-02-28T14:50:00;2.20;;;1.50;;
43086;SDS011;28708;52.224;6.924;2023-02-28T14:52:32;2.30;;;1.37;;
43086;SDS011;28708;52.224;6.924;2023-02-28T14:54:59;3.20;;;1.58;;
43086;SDS011;28708;52.224;6.924;2023-02-28T14:57:29;4.03;;;1.70;;
43086;SDS011;28708;52.224;6.924;2023-02-28T15:02:30;4.63;;;1.90;;
43086;SDS011;28708;52.224;6.924;2023-02-28T15:04:59;2.33;;;1.30;;
43086;SDS011;28708;52.224;6.924;2023-02-28T15:07:34;3.27;;;1.70;;
43086;SDS011;28708;52.224;6.924;2023-02-28T15:10:07;4.70;;;1.83;;
43086;SDS011;28708;52.224;6.924;2023-02-28T15:12:36;5.97;;;1.50;;
43086;SDS011;28708;52.224;6.924;2023-02-28T15:15:04;8.73;;;2.10;;
43086;SDS011;28708;52.224;6.924;2023-02-28T15:17:32;2.80;;;1.80;;
43086;SDS011;28708;52.224;6.924;2023-02-28T15:20:00;4.20;;;1.63;;
43086;SDS011;28708;52.224;6.924;2023-02-28T15:22:27;6.77;;;1.67;;
43086;SDS011;28708;52.224;6.924;2023-02-28T15:25:00;6.83;;;1.70;;
43086;SDS011;28708;52.224;6.924;2023-02-28T15:27:31;5.18;;;1.75;;
43086;SDS011;28708;52.224;6.924;2023-02-28T15:29:59;4.60;;;2.00;;
43086;SDS011;28708;52.224;6.924;2023-02-28T15:32:34;3.70;;;1.80;;
43086;SDS011;28708;52.224;6.924;2023-02-28T15:35:46;4.13;;;1.57;;
43086;SDS011;28708;52.224;6.924;2023-02-28T15:37:48;3.00;;;1.50;;
43086;SDS011;28708;52.224;6.924;2023-02-28T15:40:25;4.87;;;1.80;;
43086;SDS011;28708;52.224;6.924;2023-02-28T15:42:59;5.03;;;1.60;;
43086;SDS011;28708;52.224;6.924;2023-02-28T15:45:46;3.27;;;1.80;;
43086;SDS011;28708;52.224;6.924;2023-02-28T15:48:18;3.73;;;1.73;;
43086;SDS011;28708;52.224;6.924;2023-02-28T15:50:48;3.23;;;1.70;;
43086;SDS011;28708;52.224;6.924;2023-02-28T15:53:23;2.03;;;1.40;;
43086;SDS011;28708;52.224;6.924;2023-02-28T15:55:55;4.67;;;1.90;;
43086;SDS011;28708;52.224;6.924;2023-02-28T15:58:23;3.13;;;1.60;;
43086;SDS011;28708;52.224;6.924;2023-02-28T16:01:16;3.97;;;1.57;;
43086;SDS011;28708;52.224;6.924;2023-02-28T16:03:48;4.97;;;1.90;;
43086;SDS011;28708;52.224;6.924;2023-02-28T16:08:41;3.67;;;1.67;;
43086;SDS011;28708;52.224;6.924;2023-02-28T16:11:11;5.40;;;1.90;;
43086;SDS011;28708;52.224;6.924;2023-02-28T16:13:36;3.50;;;1.87;;
43086;SDS011;28708;52.224;6.924;2023-02-28T16:16:02;4.47;;;2.10;;
43086;SDS011;28708;52.224;6.924;2023-02-28T16:18:28;2.97;;;1.97;;
43086;SDS011;28708;52.224;6.924;2023-02-28T16:20:54;4.70;;;2.30;;
43086;SDS011;28708;52.224;6.924;2023-02-28T16:23:19;3.97;;;2.00;;
43086;SDS011;28708;52.224;6.924;2023-02-28T16:25:45;4.47;;;1.83;;
43086;SDS011;28708;52.224;6.924;2023-02-28T16:28:21;4.63;;;1.87;;
43086;SDS011;28708;52.224;6.924;2023-02-28T16:30:53;2.87;;;1.77;;
43086;SDS011;28708;52.224;6.924;2023-02-28T16:33:19;3.40;;;1.90;;
43086;SDS011;28708;52.224;6.924;2023-02-28T16:35:44;5.40;;;2.00;;
43086;SDS011;28708;52.224;6.924;2023-02-28T16:38:10;4.23;;;2.00;;
43086;SDS011;28708;52.224;6.924;2023-02-28T16:40:36;5.73;;;2.30;;
43086;SDS011;28708;52.224;6.924;2023-02-28T16:43:04;4.50;;;2.13;;
43086;SDS011;28708;52.224;6.924;2023-02-28T16:45:34;3.30;;;2.00;;
43086;SDS011;28708;52.224;6.924;2023-02-28T16:48:00;5.80;;;2.70;;
43086;SDS011;28708;52.224;6.924;2023-02-28T16:50:27;5.60;;;2.27;;
43086;SDS011;28708;52.224;6.924;2023-02-28T16:52:54;5.80;;;2.60;;
43086;SDS011;28708;52.224;6.924;2023-02-28T16:55:21;3.87;;;2.20;;
43086;SDS011;28708;52.224;6.924;2023-02-28T16:57:53;4.00;;;1.90;;
43086;SDS011;28708;52.224;6.924;2023-02-28T17:00:20;4.93;;;2.23;;
43086;SDS011;28708;52.224;6.924;2023-02-28T17:02:47;5.63;;;2.40;;
43086;SDS011;28708;52.224;6.924;2023-02-28T17:05:12;3.93;;;1.60;;
43086;SDS011;28708;52.224;6.924;2023-02-28T17:07:40;2.90;;;1.87;;
43086;SDS011;28708;52.224;6.924;2023-02-28T17:12:38;5.27;;;2.37;;
43086;SDS011;28708;52.224;6.924;2023-02-28T17:15:04;3.63;;;1.90;;
43086;SDS011;28708;52.224;6.924;2023-02-28T17:17:31;7.33;;;2.30;;
43086;SDS011;28708;52.224;6.924;2023-02-28T17:19:57;3.20;;;1.90;;
43086;SDS011;28708;52.224;6.924;2023-02-28T17:22:22;6.03;;;2.47;;
43086;SDS011;28708;52.224;6.924;2023-02-28T17:24:50;6.37;;;2.37;;
43086;SDS011;28708;52.224;6.924;2023-02-28T17:27:16;7.77;;;3.03;;
43086;SDS011;28708;52.224;6.924;2023-02-28T17:29:42;7.10;;;2.23;;
43086;SDS011;28708;52.224;6.924;2023-02-28T17:32:07;4.07;;;2.40;;